createdAt,value
2023-04-28T00:00:09.825Z,3.1
2023-04-28T00:03:10.956Z,3.1
2023-04-28T00:06:10.005Z,3.1
2023-04-28T00:09:09.850Z,3.2
2023-04-28T00:12:09.804Z,3.2
2023-04-28T00:15:09.865Z,3.2
2023-04-28T00:18:10.096Z,3.3
2023-04-28T00:21:09.843Z,3.2
2023-04-28T00:24:09.874Z,3.2
2023-04-28T00:27:09.938Z,3.3
2023-04-28T00:30:09.987Z,3.4
2023-04-28T00:33:10.158Z,3.4
2023-04-28T00:36:10.310Z,3.4
2023-04-28T00:39:09.906Z,3.4
2023-04-28T00:42:09.811Z,3.4
2023-04-28T00:45:09.889Z,3.5
2023-04-28T00:48:10.242Z,3.5
2023-04-28T00:51:09.839Z,3.5
2023-04-28T00:54:09.926Z,3.6
2023-04-28T00:57:09.866Z,3.6
2023-04-28T01:00:09.932Z,3.6
2023-04-28T01:03:11.087Z,3.7
2023-04-28T01:06:09.796Z,3.7
2023-04-28T01:09:09.925Z,3.7
2023-04-28T01:12:09.949Z,3.7
2023-04-28T01:15:09.899Z,3.8
2023-04-28T01:18:10.258Z,3.8
2023-04-28T01:21:09.962Z,3.8
2023-04-28T01:24:09.849Z,3.9
2023-04-28T01:27:09.913Z,3.9
2023-04-28T01:30:10.088Z,3.9
2023-04-28T01:33:10.460Z,3.9
2023-04-28T01:36:09.942Z,3.9
2023-04-28T01:39:09.876Z,3.9
2023-04-28T01:42:09.948Z,3.9
2023-04-28T01:45:09.800Z,3.9
2023-04-28T01:48:10.243Z,4
2023-04-28T01:51:09.841Z,4
2023-04-28T01:54:09.826Z,4.1
2023-04-28T01:57:10.272Z,4.1
2023-04-28T02:00:09.854Z,4.1
2023-04-28T02:03:10.605Z,4.1
2023-04-28T02:06:09.774Z,4.1
2023-04-28T02:09:09.811Z,4.1
2023-04-28T02:12:09.856Z,4.1
2023-04-28T02:15:09.903Z,4.1
2023-04-28T02:18:10.411Z,4.1
2023-04-28T02:21:09.838Z,4.1
2023-04-28T02:24:09.870Z,4.2
2023-04-28T02:27:10.470Z,4.2
2023-04-28T02:30:09.968Z,4.2
2023-04-28T02:33:10.124Z,4.3
2023-04-28T02:36:10.038Z,4.4
2023-04-28T02:39:09.786Z,4.4
2023-04-28T02:42:09.881Z,4.6
2023-04-28T02:45:09.948Z,4.6
2023-04-28T02:48:10.009Z,4.6
2023-04-28T02:51:09.831Z,4.6
2023-04-28T02:54:09.784Z,4.6
2023-04-28T02:57:09.914Z,4.5
2023-04-28T03:00:09.921Z,4.5
2023-04-28T03:03:10.869Z,4.5
2023-04-28T03:06:09.916Z,4.5
2023-04-28T03:09:09.855Z,4.5
2023-04-28T03:12:09.856Z,4.6
2023-04-28T03:15:10.333Z,4.6
2023-04-28T03:18:10.223Z,4.7
2023-04-28T03:21:09.820Z,4.7
2023-04-28T03:24:12.832Z,4.7
2023-04-28T03:27:09.826Z,4.8
2023-04-28T03:30:09.973Z,4.9
2023-04-28T03:33:10.388Z,4.9
2023-04-28T03:36:09.849Z,5
2023-04-28T03:39:09.879Z,5
2023-04-28T03:42:09.852Z,4.9
2023-04-28T03:45:09.860Z,4.9
2023-04-28T03:48:10.063Z,4.9
2023-04-28T03:51:09.970Z,4.8
2023-04-28T03:54:09.855Z,4.8
2023-04-28T03:57:09.931Z,4.8
2023-04-28T04:00:10.026Z,4.8
2023-04-28T04:03:10.860Z,4.7
2023-04-28T04:06:09.886Z,4.7
2023-04-28T04:09:09.910Z,4.7
2023-04-28T04:12:10.226Z,4.7
2023-04-28T04:15:09.907Z,4.7
2023-04-28T04:18:10.333Z,4.7
2023-04-28T04:21:09.951Z,4.7
2023-04-28T04:24:10.107Z,4.7
2023-04-28T04:27:09.900Z,4.7
2023-04-28T04:30:10.026Z,4.7
2023-04-28T04:33:10.236Z,4.9
2023-04-28T04:36:09.964Z,5
2023-04-28T04:39:10.183Z,5.1
2023-04-28T04:42:30.415Z,5.4
2023-04-28T04:45:10.219Z,5.6
2023-04-28T04:48:10.149Z,5.9
2023-04-28T04:51:10.834Z,6.2
2023-04-28T04:54:09.954Z,6.4
2023-04-28T04:57:10.053Z,6.8
2023-04-28T05:00:10.005Z,7.1
2023-04-28T05:03:10.810Z,7.4
2023-04-28T05:06:09.905Z,7.7
2023-04-28T05:09:09.904Z,7.7
2023-04-28T05:12:09.993Z,7.6
2023-04-28T05:15:09.936Z,7.4
2023-04-28T05:18:10.253Z,7.2
2023-04-28T05:21:09.942Z,7.1
2023-04-28T05:24:10.014Z,7.1
2023-04-28T05:27:09.967Z,7.1
2023-04-28T05:30:10.457Z,7.1
2023-04-28T05:33:10.369Z,7.1
2023-04-28T05:36:09.929Z,7.1
2023-04-28T05:39:09.955Z,7.1
2023-04-28T05:42:10.134Z,7.1
2023-04-28T05:45:09.954Z,7.1
2023-04-28T05:48:10.290Z,7.2
2023-04-28T05:51:25.369Z,7.2
2023-04-28T05:54:09.869Z,7.2
2023-04-28T05:57:10.516Z,7.3
2023-04-28T06:00:10.148Z,7.4
2023-04-28T06:03:10.930Z,7.5
2023-04-28T06:06:14.889Z,7.6
2023-04-28T06:09:10.147Z,7.6
2023-04-28T06:12:09.980Z,7.7
2023-04-28T06:15:10.066Z,7.8
2023-04-28T06:18:10.150Z,7.8
2023-04-28T06:21:09.846Z,7.9
2023-04-28T06:24:10.029Z,8
2023-04-28T06:27:09.868Z,8.1
2023-04-28T06:30:10.073Z,8.2
2023-04-28T06:33:10.281Z,8.3
2023-04-28T06:36:09.935Z,8.4
2023-04-28T06:39:10.034Z,8.6
2023-04-28T06:42:09.966Z,8.6
2023-04-28T06:45:10.334Z,8.6
2023-04-28T06:48:10.626Z,8.7
2023-04-28T06:51:09.883Z,8.8
2023-04-28T06:54:10.210Z,9.1
2023-04-28T06:57:10.283Z,9.1
2023-04-28T07:00:10.530Z,9.1
2023-04-28T07:03:11.717Z,9.2
2023-04-28T07:06:09.874Z,9.3
2023-04-28T07:09:09.985Z,9.4
2023-04-28T07:12:09.910Z,9.4
2023-04-28T07:15:12.156Z,9.6
2023-04-28T07:18:10.239Z,9.6
2023-04-28T07:21:14.082Z,9.7
2023-04-28T07:24:09.913Z,9.8
2023-04-28T07:27:09.955Z,9.8
2023-04-28T07:30:34.159Z,9.8
2023-04-28T07:33:10.222Z,9.9
2023-04-28T07:36:09.988Z,9.9
2023-04-28T07:39:10.142Z,10.2
2023-04-28T07:42:10.272Z,10.4
2023-04-28T07:45:10.049Z,10.6
2023-04-28T07:48:10.383Z,10.6
2023-04-28T07:51:10.106Z,10.4
2023-04-28T07:54:09.920Z,10.4
2023-04-28T07:57:09.934Z,10.3
2023-04-28T08:00:10.209Z,10.3
2023-04-28T08:03:11.125Z,10.4
2023-04-28T08:06:10.615Z,10.3
2023-04-28T08:09:09.953Z,10.4
2023-04-28T08:12:09.941Z,10.6
2023-04-28T08:15:09.909Z,10.7
2023-04-28T08:18:10.269Z,10.8
2023-04-28T08:21:09.907Z,10.8
2023-04-28T08:24:09.982Z,10.7
2023-04-28T08:27:09.917Z,10.8
2023-04-28T08:30:10.042Z,10.8
2023-04-28T08:33:11.908Z,10.9
2023-04-28T08:36:10.013Z,11.2
2023-04-28T08:39:11.748Z,11.3
2023-04-28T08:42:10.040Z,11.4
2023-04-28T08:45:09.956Z,11.4
2023-04-28T08:48:10.147Z,11.6
2023-04-28T08:51:09.933Z,12
2023-04-28T08:57:10.209Z,11.9
2023-04-28T09:00:09.967Z,11.9
2023-04-28T09:03:10.819Z,11.9
2023-04-28T09:06:10.064Z,11.8
2023-04-28T09:09:10.080Z,11.9
2023-04-28T09:12:09.979Z,12
2023-04-28T09:15:09.995Z,12
2023-04-28T09:18:10.917Z,12.3
2023-04-28T09:21:10.838Z,12.3
2023-04-28T09:24:09.942Z,12.4
2023-04-28T09:27:09.899Z,13
2023-04-28T09:30:09.952Z,13.1
2023-04-28T09:33:13.447Z,13
2023-04-28T09:36:09.871Z,13.3
2023-04-28T09:39:09.979Z,13.7
2023-04-28T09:42:10.001Z,13.7
2023-04-28T09:45:10.094Z,13.4
2023-04-28T09:48:10.170Z,13.2
2023-04-28T09:51:12.433Z,13.4
2023-04-28T09:54:09.838Z,13.3
2023-04-28T09:57:11.129Z,13.4
2023-04-28T10:00:10.042Z,13.4
2023-04-28T10:03:10.815Z,13.5
2023-04-28T10:06:09.844Z,13.4
2023-04-28T10:09:10.776Z,13.4
2023-04-28T10:12:09.922Z,13.3
2023-04-28T10:15:09.988Z,13.2
2023-04-28T10:18:10.329Z,13.4
2023-04-28T10:21:10.020Z,13.5
2023-04-28T10:24:09.865Z,13.4
2023-04-28T10:27:10.027Z,13.3
2023-04-28T10:30:30.908Z,13.4
2023-04-28T10:33:10.157Z,13.4
2023-04-28T10:36:09.852Z,13.2
2023-04-28T10:39:09.858Z,13.1
2023-04-28T10:42:09.964Z,13
2023-04-28T10:45:10.153Z,13.1
2023-04-28T10:48:10.155Z,12.9
2023-04-28T10:51:10.060Z,12.9
2023-04-28T10:54:09.919Z,12.9
2023-04-28T10:57:09.920Z,12.9
2023-04-28T11:00:10.212Z,13.1
2023-04-28T11:03:10.650Z,13
2023-04-28T11:06:09.997Z,12.9
2023-04-28T11:09:09.979Z,12.9
2023-04-28T11:12:09.954Z,12.8
2023-04-28T11:15:09.966Z,12.8
2023-04-28T11:18:10.255Z,12.9
2023-04-28T11:21:10.025Z,12.9
2023-04-28T11:24:10.042Z,12.8
2023-04-28T11:27:09.922Z,12.8
2023-04-28T11:30:10.412Z,12.9
2023-04-28T11:33:10.319Z,12.9
2023-04-28T11:36:09.909Z,12.9
2023-04-28T11:39:10.319Z,12.9
2023-04-28T11:42:09.946Z,12.9
2023-04-28T11:45:10.074Z,13
2023-04-28T11:48:10.423Z,12.9
2023-04-28T11:51:10.002Z,13
2023-04-28T11:54:10.040Z,12.9
2023-04-28T11:57:10.104Z,12.9
2023-04-28T12:00:10.110Z,12.7
2023-04-28T12:03:10.994Z,12.6
2023-04-28T12:06:10.137Z,12.6
2023-04-28T12:09:09.886Z,12.4
2023-04-28T12:12:10.114Z,12.6
2023-04-28T12:15:10.020Z,12.9
2023-04-28T12:18:10.439Z,13
2023-04-28T12:21:09.962Z,13.1
2023-04-28T12:24:09.946Z,13.1
2023-04-28T12:27:09.927Z,13.3
2023-04-28T12:30:10.165Z,13.6
2023-04-28T12:33:10.429Z,14
2023-04-28T12:36:10.087Z,14.2
2023-04-28T12:39:09.955Z,13.9
2023-04-28T12:42:10.012Z,13.6
2023-04-28T12:45:10.317Z,13.6
2023-04-28T12:48:10.309Z,13.5
2023-04-28T12:51:10.113Z,13.5
2023-04-28T12:54:09.925Z,13.4
2023-04-28T12:57:09.988Z,13.4
2023-04-28T13:00:10.078Z,13.3
2023-04-28T13:03:10.898Z,13
2023-04-28T13:06:10.045Z,12.9
2023-04-28T13:09:09.941Z,13
2023-04-28T13:12:10.004Z,13.4
2023-04-28T13:15:10.080Z,14
2023-04-28T13:18:10.340Z,14.3
2023-04-28T13:21:09.927Z,14.2
2023-04-28T13:24:10.223Z,14.3
2023-04-28T13:27:10.325Z,14.1
2023-04-28T13:30:10.006Z,14.2
2023-04-28T13:33:10.382Z,14.3
2023-04-28T13:36:10.131Z,14.5
2023-04-28T13:39:11.689Z,14.1
2023-04-28T13:42:09.874Z,14.1
2023-04-28T13:45:10.024Z,13.9
2023-04-28T13:48:10.197Z,13.8
2023-04-28T13:51:09.966Z,13.6
2023-04-28T13:54:09.899Z,13.6
2023-04-28T13:57:10.007Z,13.8
2023-04-28T14:00:10.068Z,13.9
2023-04-28T14:03:11.118Z,13.9
2023-04-28T14:06:10.052Z,13.9
2023-04-28T14:09:09.945Z,13.8
2023-04-28T14:12:09.871Z,13.7
2023-04-28T14:15:10.034Z,13.6
2023-04-28T14:18:10.338Z,13.6
2023-04-28T14:21:10.141Z,13.7
2023-04-28T14:24:10.097Z,13.6
2023-04-28T14:27:09.934Z,13.4
2023-04-28T14:30:10.096Z,13.2
2023-04-28T14:33:10.449Z,13.1
2023-04-28T14:36:10.049Z,13.1
2023-04-28T14:39:09.903Z,13.1
2023-04-28T14:42:09.901Z,13.1
2023-04-28T14:45:10.027Z,13.1
2023-04-28T14:48:10.455Z,13.1
2023-04-28T14:51:10.101Z,13
2023-04-28T14:54:09.944Z,13.1
2023-04-28T14:57:09.876Z,13
2023-04-28T15:00:10.050Z,12.9
2023-04-28T15:03:10.862Z,12.9
2023-04-28T15:06:10.070Z,12.8
2023-04-28T15:09:09.991Z,12.7
2023-04-28T15:12:09.944Z,12.8
2023-04-28T15:15:09.959Z,12.7
2023-04-28T15:18:10.381Z,12.6
2023-04-28T15:21:09.957Z,12.6
2023-04-28T15:24:09.949Z,12.4
2023-04-28T15:27:09.905Z,12.4
2023-04-28T15:30:10.046Z,12.4
2023-04-28T15:33:10.305Z,12.4
2023-04-28T15:36:09.998Z,12.4
2023-04-28T15:39:09.888Z,12.4
2023-04-28T15:42:09.934Z,12.6
2023-04-28T15:45:10.192Z,12.6
2023-04-28T15:48:10.203Z,12.7
2023-04-28T15:51:09.901Z,12.7
2023-04-28T15:54:09.939Z,12.6
2023-04-28T15:57:09.988Z,12.6
2023-04-28T16:00:09.958Z,12.6
2023-04-28T16:03:11.406Z,12.6
2023-04-28T16:06:10.039Z,12.6
2023-04-28T16:09:09.868Z,12.5
2023-04-28T16:12:09.972Z,12.4
2023-04-28T16:15:10.048Z,12.4
2023-04-28T16:18:10.306Z,12.4
2023-04-28T16:21:09.974Z,12.4
2023-04-28T16:24:09.815Z,12.4
2023-04-28T16:27:09.979Z,12.3
2023-04-28T16:30:10.025Z,12.3
2023-04-28T16:33:10.420Z,12.3
2023-04-28T16:36:10.217Z,12.4
2023-04-28T16:39:10.178Z,12.6
2023-04-28T16:42:10.283Z,12.6
2023-04-28T16:45:09.959Z,12.7
2023-04-28T16:48:10.234Z,12.7
2023-04-28T16:51:09.968Z,12.6
2023-04-28T16:54:09.865Z,12.4
2023-04-28T16:57:10.305Z,12.2
2023-04-28T17:00:10.098Z,12.1
2023-04-28T17:03:10.845Z,12
2023-04-28T17:06:09.921Z,12
2023-04-28T17:09:10.087Z,12
2023-04-28T17:12:10.315Z,11.9
2023-04-28T17:15:10.089Z,11.9
2023-04-28T17:18:10.118Z,11.8
2023-04-28T17:21:09.897Z,11.7
2023-04-28T17:24:10.058Z,11.7
2023-04-28T17:27:10.013Z,11.6
2023-04-28T17:30:10.293Z,11.5
2023-04-28T17:33:10.256Z,11.4
2023-04-28T17:36:09.841Z,11.4
2023-04-28T17:39:09.975Z,11.4
2023-04-28T17:42:09.952Z,11.4
2023-04-28T17:45:10.022Z,11.3
2023-04-28T17:48:10.105Z,11.3
2023-04-28T17:51:10.021Z,11.3
2023-04-28T17:54:09.884Z,11.2
2023-04-28T17:57:09.988Z,11.1
2023-04-28T18:00:10.028Z,11.1
2023-04-28T18:03:10.703Z,11.1
2023-04-28T18:06:10.327Z,10.9
2023-04-28T18:09:09.927Z,10.9
2023-04-28T18:12:09.942Z,10.9
2023-04-28T18:15:09.930Z,10.9
2023-04-28T18:18:10.088Z,10.9
2023-04-28T18:21:10.019Z,10.9
2023-04-28T18:24:09.884Z,10.9
2023-04-28T18:27:09.921Z,10.9
2023-04-28T18:30:10.018Z,10.9
2023-04-28T18:33:10.070Z,10.9
2023-04-28T18:36:09.927Z,10.8
2023-04-28T18:39:13.257Z,10.8
2023-04-28T18:42:09.864Z,10.8
2023-04-28T18:48:10.982Z,10.8
2023-04-28T18:51:09.880Z,10.8
2023-04-28T18:54:09.819Z,10.8
2023-04-28T18:57:09.802Z,10.8
2023-04-28T19:00:09.945Z,10.8
2023-04-28T19:03:10.819Z,10.8
2023-04-28T19:06:09.859Z,10.8
2023-04-28T19:09:09.876Z,10.7
2023-04-28T19:12:09.829Z,10.7
2023-04-28T19:15:09.895Z,10.7
2023-04-28T19:18:10.140Z,10.6
2023-04-28T19:21:09.911Z,10.6
2023-04-28T19:24:09.769Z,10.6
2023-04-28T19:27:09.890Z,10.4
2023-04-28T19:30:09.969Z,10.4
2023-04-28T19:33:10.389Z,10.4
2023-04-28T19:36:09.913Z,10.4
2023-04-28T19:39:09.860Z,10.4
2023-04-28T19:42:09.860Z,10.4
2023-04-28T19:45:09.890Z,10.5
2023-04-28T19:48:10.185Z,10.4
2023-04-28T19:51:09.878Z,10.4
2023-04-28T19:54:09.824Z,10.4
2023-04-28T19:57:09.915Z,10.4
2023-04-28T20:00:10.524Z,10.4
2023-04-28T20:03:10.896Z,10.4
2023-04-28T20:06:09.855Z,10.4
2023-04-28T20:09:09.857Z,10.4
2023-04-28T20:12:09.853Z,10.4
2023-04-28T20:15:09.908Z,10.3
2023-04-28T20:18:10.186Z,10.3
2023-04-28T20:21:09.971Z,10.2
2023-04-28T20:24:09.825Z,10.2
2023-04-28T20:27:09.826Z,10.2
2023-04-28T20:30:09.869Z,10.2
2023-04-28T20:33:10.199Z,10.2
2023-04-28T20:36:09.872Z,10.2
2023-04-28T20:39:09.846Z,10.3
2023-04-28T20:42:09.943Z,10.3
2023-04-28T20:45:10.135Z,10.3
2023-04-28T20:48:10.121Z,10.3
2023-04-28T20:51:09.857Z,10.3
2023-04-28T20:54:10.152Z,10.3
2023-04-28T20:57:09.829Z,10.2
2023-04-28T21:00:09.903Z,10.1
2023-04-28T21:03:11.300Z,9.9
2023-04-28T21:06:09.882Z,9.9
2023-04-28T21:09:10.062Z,9.8
2023-04-28T21:12:09.911Z,9.9
2023-04-28T21:15:09.858Z,9.9
2023-04-28T21:18:10.300Z,9.9
2023-04-28T21:21:09.799Z,9.9
2023-04-28T21:24:09.888Z,10
2023-04-28T21:27:09.860Z,10
2023-04-28T21:30:09.961Z,10.1
2023-04-28T21:33:10.124Z,10.1
2023-04-28T21:36:09.905Z,10.1
2023-04-28T21:39:09.897Z,10.2
2023-04-28T21:42:09.863Z,10.2
2023-04-28T21:45:09.958Z,10.2
2023-04-28T21:48:10.085Z,10.3
2023-04-28T21:51:09.888Z,10.3
2023-04-28T21:54:09.895Z,10.3
2023-04-28T21:57:09.794Z,10.3
2023-04-28T22:00:10.878Z,10.3
2023-04-28T22:03:10.782Z,10.5
2023-04-28T22:06:09.820Z,10.9
2023-04-28T22:09:09.828Z,11.1
2023-04-28T22:12:10.118Z,11.3
2023-04-28T22:15:09.837Z,11.4
2023-04-28T22:18:10.081Z,11.6
2023-04-28T22:21:09.849Z,11.6
2023-04-28T22:24:09.861Z,11.6
2023-04-28T22:27:09.846Z,11.6
2023-04-28T22:30:09.899Z,11.7
2023-04-28T22:33:10.047Z,11.8
2023-04-28T22:36:09.851Z,11.8
2023-04-28T22:39:09.910Z,11.8
2023-04-28T22:42:09.936Z,11.8
2023-04-28T22:45:12.967Z,11.9
2023-04-28T22:48:10.254Z,11.9
2023-04-28T22:51:09.875Z,12
2023-04-28T22:54:09.868Z,12
2023-04-28T22:57:09.882Z,12
2023-04-28T23:00:10.128Z,12
2023-04-28T23:03:10.717Z,11.9
2023-04-28T23:06:10.063Z,11.9
2023-04-28T23:09:09.817Z,11.9
2023-04-28T23:12:09.981Z,11.8
2023-04-28T23:15:09.858Z,11.8
2023-04-28T23:18:10.085Z,11.7
2023-04-28T23:21:09.833Z,11.7
2023-04-28T23:24:09.877Z,11.6
2023-04-28T23:27:09.836Z,11.6
2023-04-28T23:30:09.906Z,11.6
2023-04-28T23:33:10.166Z,11.6
2023-04-28T23:36:09.835Z,11.6
2023-04-28T23:39:09.877Z,11.6
2023-04-28T23:42:10.049Z,11.6
2023-04-28T23:45:09.856Z,11.6
2023-04-28T23:48:09.892Z,11.6
2023-04-28T23:51:09.970Z,11.6
2023-04-28T23:54:09.841Z,11.5
2023-04-28T23:57:09.872Z,11.6
